Time;durP1;ratioP1;P1;durP2;ratioP2;P2;SDS_P1;SDS_P2;PMS_P1;PMS_P2;Temp;Humidity;BMP_temperature;BMP_pressure;BME280_temperature;BME280_humidity;BME280_pressure;Samples;Min_cycle;Max_cycle;Signal;HPM_P1;HPM_P2
2023/10/08 00:01:42;;;;;;;11.80;8.73;;;;;;;14.48;95.07;98994.44;4126058;28;20639;-87
2023/10/08 00:03:48;;;;;;;9.67;7.83;;;;;;;14.43;94.86;98993.06;4124764;28;20686;-87
2023/10/08 00:05:52;;;;;;;9.70;7.93;;;;;;;14.40;94.53;98990.66;4127554;28;20661;-87
2023/10/08 00:07:56;;;;;;;10.97;7.37;;;;;;;14.35;95.17;98993.59;4119473;28;20640;-86
2023/10/08 00:10:02;;;;;;;12.50;7.33;;;;;;;14.34;95.22;98985.81;4127283;28;20648;-87
2023/10/08 00:12:04;;;;;;;11.53;8.10;;;;;;;14.29;95.29;98985.31;4122159;28;21458;-87
2023/10/08 00:14:09;;;;;;;12.40;8.30;;;;;;;14.25;95.06;98987.31;4120787;28;20638;-87
2023/10/08 00:16:15;;;;;;;9.43;7.40;;;;;;;14.22;95.78;98984.03;4124210;28;20678;-87
2023/10/08 00:18:19;;;;;;;9.70;8.40;;;;;;;14.19;96.23;98979.00;4111708;28;20630;-87
2023/10/08 00:20:28;;;;;;;8.87;7.77;;;;;;;14.21;95.78;98966.66;4123088;28;20642;-87
2023/10/08 00:22:35;;;;;;;12.30;9.17;;;;;;;14.21;96.20;98969.28;4126205;28;21314;-87
2023/10/08 00:24:41;;;;;;;11.67;8.83;;;;;;;14.20;96.41;98973.66;4125295;28;20626;-87
2023/10/08 00:26:46;;;;;;;10.83;8.77;;;;;;;14.22;96.08;98970.94;4134440;28;20648;-88
2023/10/08 00:28:51;;;;;;;11.53;7.87;;;;;;;14.23;96.39;98965.56;4121299;28;20637;-87
2023/10/08 00:30:55;;;;;;;8.90;7.60;;;;;;;14.20;96.26;98964.94;4122781;28;21250;-87
2023/10/08 00:32:58;;;;;;;8.20;6.90;;;;;;;14.17;95.73;98965.16;4119446;28;20638;-87
2023/10/08 00:35:05;;;;;;;10.77;6.80;;;;;;;14.13;95.66;98959.28;4108440;28;20653;-86
2023/10/08 00:37:10;;;;;;;9.00;7.10;;;;;;;14.09;95.66;98959.63;4115328;28;20672;-87
2023/10/08 00:39:14;;;;;;;9.40;7.57;;;;;;;14.06;95.62;98958.97;4130892;28;20727;-87
2023/10/08 00:41:21;;;;;;;12.37;7.23;;;;;;;14.05;95.86;98955.50;4131972;28;20655;-87
2023/10/08 00:43:34;;;;;;;10.77;7.53;;;;;;;14.04;95.94;98956.41;4112466;28;20789;-87
2023/10/08 00:45:43;;;;;;;12.57;9.30;;;;;;;14.06;96.17;98951.94;4122736;28;21090;-87
2023/10/08 00:47:47;;;;;;;11.40;8.40;;;;;;;14.05;96.15;98952.88;4139678;28;20947;-87
2023/10/08 00:50:03;;;;;;;9.83;7.70;;;;;;;14.04;96.58;98951.16;4109459;28;20733;-87
2023/10/08 00:52:25;;;;;;;9.60;7.57;;;;;;;14.03;96.34;98957.38;4109776;28;20638;-87
2023/10/08 00:54:32;;;;;;;8.67;7.50;;;;;;;13.99;96.13;98947.19;4135497;28;20651;-87
2023/10/08 00:58:59;;;;;;;10.07;6.90;;;;;;;13.94;96.21;98942.25;4126263;28;20629;-87
2023/10/08 01:01:10;;;;;;;11.90;7.13;;;;;;;13.95;96.41;98951.81;4122135;28;20649;-87
2023/10/08 01:03:16;;;;;;;11.73;8.07;;;;;;;13.95;96.52;98949.19;4135322;28;20664;-87
2023/10/08 01:05:41;;;;;;;10.90;8.23;;;;;;;13.95;97.13;98951.81;4135230;28;20706;-87
2023/10/08 01:07:45;;;;;;;11.10;7.43;;;;;;;13.92;96.42;98952.03;4127516;28;20641;-87
2023/10/08 01:09:50;;;;;;;10.50;6.93;;;;;;;13.90;96.18;98960.94;4122733;28;20643;-87
2023/10/08 01:12:08;;;;;;;10.17;7.37;;;;;;;13.89;96.64;98949.59;4123657;28;21375;-87
2023/10/08 01:14:15;;;;;;;11.73;7.90;;;;;;;13.90;96.85;98961.75;4126908;28;20665;-87
2023/10/08 01:16:18;;;;;;;9.47;7.50;;;;;;;13.88;96.74;98955.78;4123217;28;21249;-87
2023/10/08 01:18:30;;;;;;;10.30;8.40;;;;;;;13.88;97.06;98945.28;4119658;28;21811;-87
2023/10/08 01:20:36;;;;;;;11.60;7.73;;;;;;;13.87;96.77;98956.72;4127225;28;20641;-87
2023/10/08 01:22:42;;;;;;;10.53;6.87;;;;;;;13.84;96.58;98953.47;4126330;28;20716;-87
2023/10/08 01:24:48;;;;;;;8.83;6.87;;;;;;;13.82;96.07;98942.25;4126829;28;20636;-87
2023/10/08 01:26:53;;;;;;;12.33;7.73;;;;;;;13.81;96.47;98951.88;4124504;28;20720;-87
2023/10/08 01:28:56;;;;;;;14.00;7.67;;;;;;;13.84;96.78;98956.09;4128266;28;20754;-87
2023/10/08 01:31:03;;;;;;;8.80;6.90;;;;;;;13.84;96.66;98954.31;4123191;28;20655;-87
2023/10/08 01:33:11;;;;;;;10.00;6.60;;;;;;;13.77;95.93;98955.69;4096084;28;20776;-86
2023/10/08 01:35:23;;;;;;;10.23;6.73;;;;;;;13.71;95.75;98945.59;4126028;28;20633;-87
2023/10/08 01:37:27;;;;;;;9.20;6.67;;;;;;;13.69;96.21;98950.09;4127573;28;21038;-87
2023/10/08 01:39:33;;;;;;;7.97;6.53;;;;;;;13.67;96.37;98953.78;4110717;28;20652;-87
2023/10/08 01:41:40;;;;;;;7.73;6.00;;;;;;;13.64;95.80;98946.94;4124352;28;20633;-87
2023/10/08 01:43:44;;;;;;;9.57;6.57;;;;;;;13.66;96.42;98958.16;4123714;28;21243;-87
2023/10/08 01:45:51;;;;;;;8.43;6.53;;;;;;;13.66;95.57;98955.53;4107436;28;20705;-87
2023/10/08 01:47:55;;;;;;;10.30;7.03;;;;;;;13.65;96.03;98956.50;4108961;28;21286;-87
2023/10/08 01:50:05;;;;;;;8.20;6.60;;;;;;;13.66;96.59;98960.78;4127720;28;20692;-87
2023/10/08 01:52:13;;;;;;;9.73;6.70;;;;;;;13.66;96.60;98962.56;4126747;28;20653;-86
2023/10/08 01:54:21;;;;;;;11.17;6.53;;;;;;;13.65;95.99;98959.13;4108833;28;20669;-87
2023/10/08 01:56:26;;;;;;;8.93;6.50;;;;;;;13.64;96.64;98958.41;4116656;28;21002;-87
2023/10/08 01:58:30;;;;;;;10.27;6.60;;;;;;;13.62;96.56;98962.88;4122078;28;20790;-87
2023/10/08 02:00:34;;;;;;;12.23;6.80;;;;;;;13.61;97.51;98958.59;4134342;28;20731;-87
2023/10/08 02:02:40;;;;;;;7.80;6.67;;;;;;;13.58;96.62;98966.66;4127460;28;20627;-87
2023/10/08 02:04:44;;;;;;;10.40;6.17;;;;;;;13.58;97.38;98967.50;4121814;28;20677;-87
2023/10/08 02:06:47;;;;;;;9.03;5.87;;;;;;;13.56;96.63;98972.00;4138652;28;20748;-87
2023/10/08 02:08:51;;;;;;;10.53;6.47;;;;;;;13.53;97.13;98961.72;4137641;28;20984;-87
2023/10/08 02:10:56;;;;;;;12.33;7.20;;;;;;;13.48;96.34;98971.66;4125229;28;21327;-87
2023/10/08 02:13:01;;;;;;;9.00;6.30;;;;;;;13.47;96.97;98966.50;4123810;28;20726;-88
2023/10/08 02:15:06;;;;;;;10.07;8.07;;;;;;;13.45;96.65;98965.78;4126220;28;20652;-87
2023/10/08 02:17:09;;;;;;;9.90;6.30;;;;;;;13.41;95.38;98957.28;4126121;28;21298;-87
2023/10/08 02:19:18;;;;;;;10.13;7.37;;;;;;;13.35;95.46;98954.22;4127497;28;20617;-87
2023/10/08 02:21:22;;;;;;;10.00;6.40;;;;;;;13.33;96.49;98949.06;4141239;28;20656;-87
2023/10/08 02:23:25;;;;;;;9.43;6.80;;;;;;;13.34;96.79;98958.63;4126419;28;20641;-87
2023/10/08 02:25:29;;;;;;;10.60;7.00;;;;;;;13.35;96.67;98952.44;4120225;28;20640;-86
2023/10/08 02:27:33;;;;;;;11.93;7.37;;;;;;;13.32;96.16;98952.66;4124976;28;20655;-87
2023/10/08 02:29:37;;;;;;;11.83;7.17;;;;;;;13.31;96.13;98950.13;4124827;28;20657;-87
2023/10/08 02:31:42;;;;;;;8.57;6.80;;;;;;;13.31;96.26;98950.13;4120984;28;20676;-87
2023/10/08 02:33:45;;;;;;;11.93;7.77;;;;;;;13.31;96.29;98944.88;4123335;28;21078;-87
2023/10/08 02:35:52;;;;;;;8.30;6.20;;;;;;;13.31;96.15;98948.34;4124519;28;20636;-86
2023/10/08 02:37:57;;;;;;;10.80;7.47;;;;;;;13.33;96.89;98943.00;4128930;28;20728;-86
2023/10/08 02:40:00;;;;;;;9.73;6.63;;;;;;;13.33;97.03;98950.84;4123991;28;20678;-86
2023/10/08 02:42:10;;;;;;;8.40;5.73;;;;;;;13.35;96.03;98948.97;4127077;28;20645;-87
2023/10/08 02:44:14;;;;;;;9.90;6.60;;;;;;;13.34;95.68;98949.94;4128082;28;21050;-87
2023/10/08 02:46:19;;;;;;;7.87;6.17;;;;;;;13.33;95.63;98956.09;4139101;28;20636;-87
2023/10/08 02:48:23;;;;;;;10.63;6.90;;;;;;;13.26;95.85;98949.56;4103692;28;20638;-86
2023/10/08 02:50:27;;;;;;;11.80;7.07;;;;;;;13.21;95.44;98954.28;4126820;28;20665;-87
2023/10/08 02:52:31;;;;;;;8.60;6.40;;;;;;;13.17;95.73;98951.94;4134106;28;20672;-87
2023/10/08 02:54:37;;;;;;;9.00;6.93;;;;;;;13.17;95.90;98937.09;4109125;28;21079;-87
2023/10/08 02:56:40;;;;;;;13.43;6.73;;;;;;;13.16;95.38;98948.50;4127226;28;24682;-87
2023/10/08 02:58:47;;;;;;;10.50;6.77;;;;;;;13.17;96.23;98944.97;4124745;28;20641;-87
2023/10/08 03:00:53;;;;;;;8.80;6.50;;;;;;;13.20;96.91;98950.00;4108024;28;21212;-87
2023/10/08 03:03:01;;;;;;;11.13;6.20;;;;;;;13.22;96.63;98950.72;4125349;28;21245;-87
2023/10/08 03:05:08;;;;;;;8.17;5.87;;;;;;;13.24;95.77;98944.47;4134402;28;20727;-86
2023/10/08 03:07:21;;;;;;;8.20;5.10;;;;;;;13.22;95.63;98941.06;4122875;28;20687;-86
2023/10/08 03:09:32;;;;;;;8.47;5.53;;;;;;;13.22;94.42;98948.09;4124119;28;21031;-86
2023/10/08 03:11:37;;;;;;;7.90;5.47;;;;;;;13.23;95.02;98949.81;4123116;28;20640;-86
2023/10/08 03:13:40;;;;;;;9.37;5.40;;;;;;;13.21;95.86;98943.78;4125765;28;20641;-86
2023/10/08 03:15:57;;;;;;;7.90;5.60;;;;;;;13.18;94.54;98945.78;4126383;28;20653;-86
2023/10/08 03:18:10;;;;;;;7.50;5.83;;;;;;;13.13;95.32;98943.47;4127211;28;20682;-86
2023/10/08 03:22:34;;;;;;;8.27;5.27;;;;;;;13.09;93.99;98943.75;4120443;28;21353;-86
2023/10/08 03:24:41;;;;;;;7.93;5.43;;;;;;;13.10;94.73;98941.03;4126165;28;20629;-86
2023/10/08 03:26:45;;;;;;;6.73;4.80;;;;;;;13.15;94.48;98949.44;4123678;28;20635;-86
2023/10/08 03:28:57;;;;;;;12.03;5.83;;;;;;;13.15;95.01;98952.06;4123483;28;20644;-85
2023/10/08 03:31:04;;;;;;;9.67;6.00;;;;;;;13.13;95.74;98955.72;4120751;28;21131;-86
2023/10/08 03:33:10;;;;;;;7.80;5.83;;;;;;;13.10;96.37;98956.75;4126188;28;20640;-86
2023/10/08 03:35:14;;;;;;;12.73;6.67;;;;;;;13.10;96.24;98962.00;4121348;28;20696;-86
2023/10/08 03:37:29;;;;;;;9.30;6.83;;;;;;;13.10;95.52;98963.78;4121825;28;20678;-87
2023/10/08 03:39:50;;;;;;;7.50;6.10;;;;;;;13.09;96.29;98968.16;4125045;28;20633;-86
2023/10/08 03:41:59;;;;;;;10.67;7.10;;;;;;;13.04;95.54;98967.63;4122839;28;20680;-86
2023/10/08 03:44:06;;;;;;;8.80;6.20;;;;;;;13.02;95.60;98974.75;4127376;28;21267;-86
2023/10/08 03:46:15;;;;;;;9.70;6.77;;;;;;;12.99;95.14;98974.94;4124627;28;20635;-87
2023/10/08 03:48:22;;;;;;;8.50;6.20;;;;;;;12.96;96.16;98975.13;4119109;28;20635;-86
2023/10/08 03:50:32;;;;;;;11.27;6.80;;;;;;;12.95;96.11;98973.44;4138613;28;20643;-86
2023/10/08 03:52:38;;;;;;;8.73;5.90;;;;;;;12.95;94.74;98970.00;4132701;28;20733;-87
2023/10/08 03:54:47;;;;;;;8.10;5.30;;;;;;;12.91;96.18;98966.72;4138653;28;20976;-86
2023/10/08 03:56:51;;;;;;;9.10;6.23;;;;;;;12.92;94.97;98962.34;4121203;28;20696;-86
2023/10/08 03:58:54;;;;;;;9.20;5.90;;;;;;;12.91;96.18;98963.25;4108622;28;20657;-87
2023/10/08 04:01:08;;;;;;;8.87;5.23;;;;;;;12.92;95.36;98957.94;4125530;28;20731;-87
2023/10/08 04:03:11;;;;;;;8.40;5.50;;;;;;;12.89;96.09;98952.88;4123570;28;20639;-87
2023/10/08 04:05:19;;;;;;;9.20;5.30;;;;;;;12.88;95.42;98945.97;4120564;28;20641;-86
2023/10/08 04:07:39;;;;;;;9.63;5.63;;;;;;;12.90;96.36;98940.63;4126270;28;21206;-87
2023/10/08 04:09:42;;;;;;;15.30;6.70;;;;;;;12.86;95.42;98936.53;4126311;28;21046;-87
2023/10/08 04:11:55;;;;;;;8.50;6.30;;;;;;;12.82;94.32;98930.69;4109342;28;20624;-87
2023/10/08 04:14:02;;;;;;;8.63;5.67;;;;;;;12.81;95.29;98921.09;4121557;28;20642;-87
2023/10/08 04:16:06;;;;;;;9.30;6.13;;;;;;;12.79;95.80;98930.84;4123925;28;21064;-87
2023/10/08 04:18:09;;;;;;;9.10;5.33;;;;;;;12.77;94.20;98929.25;4123010;28;20662;-86
2023/10/08 04:20:30;;;;;;;7.80;5.30;;;;;;;12.75;95.37;98933.75;4119803;28;21231;-87
2023/10/08 04:22:36;;;;;;;9.07;5.83;;;;;;;12.72;95.25;98931.31;4123589;28;20708;-87
2023/10/08 04:24:43;;;;;;;9.90;5.67;;;;;;;12.66;94.82;98920.38;4122152;28;20649;-86
2023/10/08 04:26:45;;;;;;;11.17;6.00;;;;;;;12.64;95.46;98927.50;4122874;28;20633;-87
2023/10/08 04:28:49;;;;;;;6.53;4.73;;;;;;;12.68;95.01;98925.41;4125005;28;21213;-87
2023/10/08 04:30:52;;;;;;;6.83;3.43;;;;;;;12.77;94.15;98935.31;4128490;28;20690;-87
2023/10/08 04:32:58;;;;;;;5.63;3.50;;;;;;;12.93;92.00;98933.44;4128938;28;20640;-87
2023/10/08 04:35:04;;;;;;;5.73;3.90;;;;;;;13.04;92.49;98936.19;4128074;28;20676;-87
2023/10/08 04:37:12;;;;;;;7.43;4.23;;;;;;;13.09;93.90;98931.50;4129522;28;20686;-87
2023/10/08 04:39:21;;;;;;;8.47;4.60;;;;;;;13.13;93.59;98938.22;4122463;28;20715;-87
2023/10/08 04:41:28;;;;;;;6.17;4.67;;;;;;;13.12;92.17;98931.28;4124419;28;20628;-87
2023/10/08 04:43:31;;;;;;;5.90;3.90;;;;;;;13.08;92.93;98932.47;4125259;28;21388;-86
2023/10/08 04:45:34;;;;;;;6.77;4.60;;;;;;;13.07;93.22;98932.56;4123782;28;20673;-87
2023/10/08 04:47:41;;;;;;;7.03;4.60;;;;;;;12.97;91.93;98937.53;4128958;28;21196;-87
2023/10/08 04:49:46;;;;;;;8.93;4.77;;;;;;;12.93;92.14;98935.19;4126200;28;20628;-87
2023/10/08 04:51:48;;;;;;;7.10;4.70;;;;;;;12.91;92.49;98937.91;4123700;28;20736;-87
2023/10/08 04:53:55;;;;;;;10.23;4.83;;;;;;;12.89;92.70;98938.97;4111173;28;20632;-87
2023/10/08 04:56:05;;;;;;;6.83;4.17;;;;;;;12.79;92.10;98937.81;4129903;28;20647;-86
2023/10/08 04:58:19;;;;;;;7.37;5.00;;;;;;;12.75;92.88;98934.56;4124215;28;20662;-87
2023/10/08 05:00:42;;;;;;;7.93;4.77;;;;;;;12.75;93.48;98933.75;4112570;28;20687;-87
2023/10/08 05:02:50;;;;;;;8.33;5.30;;;;;;;12.75;94.39;98931.97;4119968;28;21209;-87
2023/10/08 05:04:56;;;;;;;6.97;4.80;;;;;;;12.77;93.73;98939.72;4109829;28;20702;-88
2023/10/08 05:07:17;;;;;;;7.30;4.97;;;;;;;12.78;93.43;98944.03;4126958;28;21463;-87
2023/10/08 05:09:23;;;;;;;7.93;5.40;;;;;;;12.79;93.64;98962.25;4127805;28;20624;-87
2023/10/08 05:11:46;;;;;;;8.80;5.67;;;;;;;12.78;94.62;98959.72;4129431;28;20648;-86
2023/10/08 05:14:02;;;;;;;7.50;5.03;;;;;;;12.78;95.42;98972.81;4124849;28;20679;-87
2023/10/08 05:16:29;;;;;;;12.00;6.13;;;;;;;12.75;94.58;98966.00;4129010;28;20634;-87
2023/10/08 05:21:16;;;;;;;10.47;7.40;;;;;;;12.74;95.17;98973.94;4126097;28;20631;-87
2023/10/08 05:23:53;;;;;;;13.37;7.50;;;;;;;12.72;95.90;98966.19;4124946;28;20630;-87
2023/10/08 05:26:08;;;;;;;11.83;6.20;;;;;;;12.72;95.86;98960.13;4123955;28;20644;-86
2023/10/08 05:28:24;;;;;;;7.80;5.67;;;;;;;12.69;95.65;98965.53;4127187;28;20655;-87
2023/10/08 05:30:41;;;;;;;8.60;5.80;;;;;;;12.66;96.08;98963.13;4126716;28;20759;-86
2023/10/08 05:33:05;;;;;;;8.60;6.27;;;;;;;12.64;95.70;98962.34;4120701;28;20655;-86
2023/10/08 05:37:40;;;;;;;8.90;5.63;;;;;;;12.63;95.41;98973.78;4126763;28;20632;-86
2023/10/08 05:39:46;;;;;;;11.33;5.00;;;;;;;12.59;95.83;98968.81;4121193;28;20650;-86
2023/10/08 05:41:54;;;;;;;7.60;5.07;;;;;;;12.52;94.05;98973.56;4101012;28;21082;-86
2023/10/08 05:44:14;;;;;;;8.00;5.20;;;;;;;12.44;94.11;98965.38;4141343;28;20615;-86
2023/10/08 05:48:45;;;;;;;8.93;5.27;;;;;;;12.42;96.00;98967.25;4136089;28;20632;-86
2023/10/08 05:50:55;;;;;;;9.87;5.73;;;;;;;12.43;94.82;98965.47;4127011;28;20693;-87
2023/10/08 05:53:15;;;;;;;10.70;6.13;;;;;;;12.44;95.42;98964.53;4123177;28;20693;-86
2023/10/08 05:55:25;;;;;;;9.37;7.03;;;;;;;12.48;95.39;98963.41;4126866;28;20634;-86
2023/10/08 05:57:38;;;;;;;10.33;7.33;;;;;;;12.53;96.04;98972.66;4126250;28;20645;-86
2023/10/08 05:59:53;;;;;;;11.70;8.03;;;;;;;12.57;96.34;98965.44;4120821;28;20764;-86
2023/10/08 06:02:06;;;;;;;9.97;7.57;;;;;;;12.59;95.36;98967.03;4128222;28;20664;-86
2023/10/08 06:06:46;;;;;;;10.70;5.87;;;;;;;12.60;94.78;98958.25;4125998;28;20632;-86
2023/10/08 06:08:52;;;;;;;7.20;4.93;;;;;;;12.56;94.27;98977.69;4124760;28;20625;-86
2023/10/08 06:11:00;;;;;;;8.40;5.30;;;;;;;12.55;95.18;98972.56;4126306;28;20695;-87
2023/10/08 06:13:09;;;;;;;5.80;4.37;;;;;;;12.52;95.59;98973.56;4113571;28;21261;-86
2023/10/08 06:15:24;;;;;;;6.43;4.03;;;;;;;12.55;95.40;98962.09;4108489;28;20625;-86
2023/10/08 06:17:55;;;;;;;8.47;5.60;;;;;;;12.51;96.26;98956.22;4132356;28;20769;-86
2023/10/08 06:20:09;;;;;;;7.50;5.27;;;;;;;12.54;97.09;98956.03;4111648;28;20780;-87
2023/10/08 06:22:11;;;;;;;9.93;6.30;;;;;;;12.59;95.89;98953.13;4123669;28;20636;-86
2023/10/08 06:24:16;;;;;;;7.50;6.00;;;;;;;12.62;95.55;98966.84;4126620;28;20676;-86
2023/10/08 06:26:21;;;;;;;8.47;5.70;;;;;;;12.68;96.70;98970.88;4119520;28;20665;-86
2023/10/08 06:28:25;;;;;;;9.90;6.07;;;;;;;12.70;95.75;98978.53;4125552;28;21019;-86
2023/10/08 06:30:34;;;;;;;6.97;5.73;;;;;;;12.74;94.93;98980.00;4123586;28;20703;-86
2023/10/08 06:32:38;;;;;;;8.27;6.03;;;;;;;12.76;95.79;98978.16;4126215;28;20637;-86
2023/10/08 06:34:41;;;;;;;9.73;4.60;;;;;;;12.82;97.30;98988.28;4126389;28;20726;-86
2023/10/08 06:36:46;;;;;;;7.47;5.03;;;;;;;12.87;96.57;98990.56;4106768;28;20740;-86
2023/10/08 06:38:49;;;;;;;9.30;5.70;;;;;;;12.93;96.00;98996.28;4132594;28;20707;-87
2023/10/08 06:40:54;;;;;;;9.40;5.43;;;;;;;12.96;97.31;98998.72;4122458;28;20625;-86
2023/10/08 06:42:57;;;;;;;6.97;4.90;;;;;;;13.03;96.82;98997.34;4127150;28;20722;-88
2023/10/08 06:45:01;;;;;;;8.30;5.50;;;;;;;13.11;96.71;98999.50;4112202;28;21027;-86
2023/10/08 06:47:09;;;;;;;8.47;6.13;;;;;;;13.19;96.66;98995.47;4128130;28;20629;-86
2023/10/08 06:49:13;;;;;;;10.47;7.90;;;;;;;13.25;97.57;99002.94;4111063;28;20675;-86
2023/10/08 06:51:18;;;;;;;12.13;8.83;;;;;;;13.29;97.30;99004.38;4123090;28;20983;-87
2023/10/08 06:53:21;;;;;;;10.83;8.13;;;;;;;13.33;96.84;99014.56;4108783;28;20628;-87
2023/10/08 06:55:26;;;;;;;11.27;7.57;;;;;;;13.38;95.63;99012.50;4121447;28;20630;-87
2023/10/08 06:57:30;;;;;;;12.17;8.17;;;;;;;13.42;95.97;99018.38;4122215;28;20629;-87
2023/10/08 06:59:39;;;;;;;9.57;7.20;;;;;;;13.45;95.70;99020.81;4111750;28;20669;-89
2023/10/08 07:01:45;;;;;;;12.40;9.07;;;;;;;13.49;95.87;99031.00;4122176;28;20655;-87
2023/10/08 07:03:51;;;;;;;12.37;9.07;;;;;;;13.52;95.64;99030.78;4123144;28;20672;-87
2023/10/08 07:05:54;;;;;;;13.43;8.77;;;;;;;13.56;95.49;99028.81;4126675;28;20738;-87
2023/10/08 07:07:57;;;;;;;12.07;9.10;;;;;;;13.56;95.37;99029.66;4124610;28;20672;-88
2023/10/08 07:10:01;;;;;;;12.00;8.20;;;;;;;13.61;96.33;99019.72;4138564;28;20639;-87
2023/10/08 07:12:13;;;;;;;12.53;8.03;;;;;;;13.67;95.71;99022.75;4125663;28;20616;-88
2023/10/08 07:14:17;;;;;;;12.77;8.17;;;;;;;13.75;96.32;99019.66;4110064;28;20679;-88
2023/10/08 07:16:21;;;;;;;10.93;7.83;;;;;;;13.84;95.21;99019.03;4123753;28;20636;-87
2023/10/08 07:18:25;;;;;;;14.43;7.97;;;;;;;14.10;95.90;99031.28;4127186;28;20663;-88
2023/10/08 07:20:35;;;;;;;11.13;7.57;;;;;;;14.26;94.12;99038.00;4126515;28;20734;-87
2023/10/08 07:22:39;;;;;;;10.43;7.57;;;;;;;14.38;93.57;99026.69;4122898;28;21208;-87
2023/10/08 07:24:45;;;;;;;9.70;6.47;;;;;;;14.59;93.69;99030.47;4127252;28;20665;-87
2023/10/08 07:26:49;;;;;;;9.83;5.73;;;;;;;14.72;93.69;99026.88;4120183;28;21188;-87
2023/10/08 07:28:53;;;;;;;8.90;5.77;;;;;;;14.75;93.51;99030.13;4125974;28;20630;-88
2023/10/08 07:30:57;;;;;;;6.63;5.23;;;;;;;14.76;92.50;99028.31;4120324;28;20758;-87
2023/10/08 07:33:03;;;;;;;7.73;5.20;;;;;;;14.78;91.87;99027.28;4125899;28;20646;-87
2023/10/08 07:35:23;;;;;;;9.40;6.87;;;;;;;14.81;93.00;99024.44;4123958;28;20696;-87
2023/10/08 07:37:27;;;;;;;13.27;8.50;;;;;;;14.84;93.87;99016.34;4124921;28;20637;-87
2023/10/08 07:39:35;;;;;;;11.10;8.73;;;;;;;14.87;94.76;99031.03;4113196;28;20754;-88
2023/10/08 07:41:38;;;;;;;13.40;9.70;;;;;;;14.86;93.66;99030.19;4125086;28;21156;-88
2023/10/08 07:43:42;;;;;;;16.33;11.20;;;;;;;14.87;95.69;99026.63;4123059;28;21351;-87
2023/10/08 07:45:46;;;;;;;15.20;9.90;;;;;;;14.93;94.49;99013.06;4123391;28;20674;-88
2023/10/08 07:47:49;;;;;;;12.00;9.40;;;;;;;14.97;94.92;99011.88;4141294;28;20630;-87
2023/10/08 07:49:53;;;;;;;15.43;10.00;;;;;;;15.04;95.28;99017.56;4121433;28;21243;-87
2023/10/08 07:51:58;;;;;;;25.93;15.43;;;;;;;15.05;93.79;99029.72;4127028;28;20730;-87
2023/10/08 07:54:03;;;;;;;28.37;19.17;;;;;;;15.12;93.61;99031.81;4124837;28;20625;-87
2023/10/08 07:56:06;;;;;;;42.27;26.57;;;;;;;15.31;92.54;99037.47;4125672;28;20710;-87
2023/10/08 07:58:11;;;;;;;36.37;22.03;;;;;;;15.46;91.81;99042.44;4126813;28;20655;-87
2023/10/08 08:00:25;;;;;;;34.30;20.07;;;;;;;15.66;91.93;99061.06;4123750;28;21092;-87
2023/10/08 08:02:31;;;;;;;19.70;11.97;;;;;;;16.03;91.49;99070.59;4118439;28;20728;-87
2023/10/08 08:04:34;;;;;;;18.13;11.10;;;;;;;16.29;91.55;99080.03;4125798;28;20653;-88
2023/10/08 08:06:38;;;;;;;11.67;9.00;;;;;;;16.48;92.35;99083.78;4114943;28;20635;-87
2023/10/08 08:08:41;;;;;;;9.63;7.07;;;;;;;16.72;92.76;99101.19;4126241;28;20656;-88
2023/10/08 08:10:45;;;;;;;10.20;6.50;;;;;;;17.00;90.51;99095.44;4108845;28;20638;-89
2023/10/08 08:12:51;;;;;;;9.73;7.17;;;;;;;17.27;89.56;99091.50;4123185;28;20653;-90
2023/10/08 08:14:55;;;;;;;16.57;11.80;;;;;;;17.46;86.75;99088.28;4120323;28;20662;-90
2023/10/08 08:17:13;;;;;;;31.97;21.20;;;;;;;17.54;86.68;99090.16;4123387;28;20669;-86
2023/10/08 08:19:17;;;;;;;39.00;24.07;;;;;;;17.63;86.92;99092.03;4122663;28;20639;-87
2023/10/08 08:21:23;;;;;;;17.40;9.13;;;;;;;17.73;86.48;99098.28;4118043;28;21060;-86
2023/10/08 08:23:26;;;;;;;10.17;7.20;;;;;;;17.82;87.21;99105.44;4122853;28;20633;-87
2023/10/08 08:25:36;;;;;;;10.40;5.83;;;;;;;17.92;86.43;99103.75;4128164;28;20996;-87
2023/10/08 08:27:43;;;;;;;8.80;6.23;;;;;;;18.13;85.06;99109.91;4128360;28;20693;-86
2023/10/08 08:29:48;;;;;;;11.00;6.60;;;;;;;18.37;85.58;99124.56;4127858;28;20673;-88
2023/10/08 08:31:53;;;;;;;9.20;6.50;;;;;;;18.48;85.26;99125.38;4122828;28;20699;-88
2023/10/08 08:34:02;;;;;;;9.37;6.20;;;;;;;18.52;85.78;99124.16;4126676;28;20637;-87
2023/10/08 08:36:06;;;;;;;7.93;5.63;;;;;;;18.51;85.87;99119.81;4138840;28;20680;-87
2023/10/08 08:38:09;;;;;;;9.20;6.50;;;;;;;18.47;86.29;99107.00;4125491;28;21134;-87
2023/10/08 08:40:17;;;;;;;11.70;5.97;;;;;;;18.47;87.64;99112.28;4125483;28;20716;-87
2023/10/08 08:42:23;;;;;;;12.53;5.83;;;;;;;18.53;86.39;99117.06;4132424;28;21214;-89
2023/10/08 08:44:30;;;;;;;8.80;5.57;;;;;;;18.65;85.15;99108.94;4124327;28;20683;-91
2023/10/08 08:46:35;;;;;;;7.20;4.10;;;;;;;18.63;81.68;99116.16;4123473;28;20693;-89
2023/10/08 08:48:40;;;;;;;18.07;13.00;;;;;;;18.66;83.13;99104.50;4110569;28;20645;-90
2023/10/08 08:50:45;;;;;;;10.33;6.33;;;;;;;18.90;81.25;99105.88;4128474;28;20724;-90
2023/10/08 08:52:49;;;;;;;6.20;3.90;;;;;;;19.16;78.11;99107.16;4123767;28;20663;-90
2023/10/08 08:54:52;;;;;;;5.57;3.87;;;;;;;19.42;77.98;99109.19;4129640;28;20684;-89
2023/10/08 08:56:56;;;;;;;6.40;3.40;;;;;;;19.55;76.69;99110.63;4127041;28;21143;-89
2023/10/08 08:59:00;;;;;;;6.53;4.30;;;;;;;19.60;77.04;99116.34;4113127;28;20630;-90
2023/10/08 09:01:07;;;;;;;6.00;3.33;;;;;;;19.65;76.63;99108.00;4114780;28;20662;-90
2023/10/08 09:03:13;;;;;;;5.70;3.50;;;;;;;19.72;77.07;99109.97;4111889;28;21165;-89
2023/10/08 09:05:24;;;;;;;7.07;3.80;;;;;;;19.83;76.74;99108.06;4108645;28;20995;-90
2023/10/08 09:07:31;;;;;;;7.43;3.60;;;;;;;19.98;74.66;99109.38;4127656;28;20634;-90
2023/10/08 09:09:37;;;;;;;8.63;4.03;;;;;;;20.07;76.34;99105.88;4128747;28;20645;-89
2023/10/08 09:11:42;;;;;;;5.10;3.70;;;;;;;20.23;75.25;99105.34;4112575;28;20673;-90
2023/10/08 09:13:46;;;;;;;5.67;3.80;;;;;;;20.37;75.06;99117.19;4128856;28;20618;-90
2023/10/08 09:15:49;;;;;;;5.77;4.00;;;;;;;20.45;72.65;99117.31;4110468;28;20643;-90
2023/10/08 09:18:00;;;;;;;6.20;3.30;;;;;;;20.55;71.50;99117.31;4145747;28;20643;-90
2023/10/08 09:20:06;;;;;;;6.10;3.80;;;;;;;20.58;72.56;99106.41;4144901;28;20643;-90
2023/10/08 09:22:12;;;;;;;5.70;3.93;;;;;;;20.58;71.68;99117.88;4138423;28;21192;-89
2023/10/08 09:24:20;;;;;;;5.53;3.63;;;;;;;20.56;73.68;99109.19;4130421;28;20975;-90
2023/10/08 09:26:23;;;;;;;17.10;12.23;;;;;;;20.60;74.28;99101.81;4131745;28;20998;-90
2023/10/08 09:28:26;;;;;;;12.80;5.70;;;;;;;20.65;75.03;99099.56;4130762;28;21236;-90
2023/10/08 09:30:30;;;;;;;7.80;4.00;;;;;;;20.61;74.10;99091.06;4139543;28;20801;-90
2023/10/08 09:32:34;;;;;;;8.87;4.17;;;;;;;20.55;74.78;99090.78;4113270;28;20643;-90
2023/10/08 09:34:39;;;;;;;5.77;3.83;;;;;;;20.55;74.78;99091.66;4120658;28;20636;-90
2023/10/08 09:36:42;;;;;;;6.73;4.33;;;;;;;20.56;74.27;99095.94;4115143;28;20623;-90
2023/10/08 09:38:48;;;;;;;14.70;10.40;;;;;;;20.55;74.83;99101.38;4127594;28;20640;-90
2023/10/08 09:40:53;;;;;;;6.20;4.03;;;;;;;20.53;74.10;99093.56;4130064;28;20758;-90
2023/10/08 09:42:57;;;;;;;6.90;3.90;;;;;;;20.54;75.31;99095.25;4126820;28;20796;-90
2023/10/08 09:45:05;;;;;;;7.83;4.30;;;;;;;20.51;75.77;99097.38;4141714;28;20251;-90
2023/10/08 09:47:11;;;;;;;6.43;4.43;;;;;;;20.47;74.39;99095.97;4130375;28;20719;-90
2023/10/08 09:49:16;;;;;;;7.03;4.30;;;;;;;20.51;75.10;99097.38;4110795;28;20636;-90
2023/10/08 09:51:21;;;;;;;8.90;4.13;;;;;;;20.48;75.83;99087.88;4127207;28;20665;-90
2023/10/08 09:53:32;;;;;;;6.10;3.60;;;;;;;20.54;75.60;99089.13;4143070;28;20637;-90
2023/10/08 09:55:36;;;;;;;6.10;4.03;;;;;;;20.58;75.34;99087.84;4127626;28;20645;-90
2023/10/08 09:57:39;;;;;;;10.20;5.07;;;;;;;20.61;75.92;99085.78;4111562;28;20691;-90
2023/10/08 09:59:43;;;;;;;6.53;4.00;;;;;;;20.63;76.77;99093.59;4126815;28;20664;-90
2023/10/08 10:01:47;;;;;;;7.03;4.20;;;;;;;20.70;75.50;99105.31;4109155;28;20685;-90
2023/10/08 10:03:51;;;;;;;6.73;4.13;;;;;;;20.71;74.49;99115.78;4111639;28;20691;-90
2023/10/08 10:05:58;;;;;;;6.93;3.93;;;;;;;20.72;75.59;99095.38;4127561;28;20726;-90
2023/10/08 10:08:05;;;;;;;8.40;4.60;;;;;;;20.79;75.00;99129.16;4111053;28;20790;-90
2023/10/08 10:10:27;;;;;;;7.67;3.90;;;;;;;20.87;75.09;99119.50;4125137;28;20208;-90